sensor_id;sensor_type;location;lat;lon;timestamp;pressure;altitude;pressure_sealevel;temperature;humidity
12963;BME280;6546;49.882;8.666;2023-05-22T00:02:03;99623.94;;;18.94;61.91
12963;BME280;6546;49.882;8.666;2023-05-22T00:04:30;99613.78;;;18.86;62.11
12963;BME280;6546;49.882;8.666;2023-05-22T00:06:56;99622.22;;;18.88;62.12
12963;BME280;6546;49.882;8.666;2023-05-22T00:09:24;99622.34;;;18.93;62.26
12963;BME280;6546;49.882;8.666;2023-05-22T00:11:51;99633.31;;;18.90;62.45
12963;BME280;6546;49.882;8.666;2023-05-22T00:14:17;99626.66;;;18.87;62.38
12963;BME280;6546;49.882;8.666;2023-05-22T00:16:46;99621.09;;;18.96;62.16
12963;BME280;6546;49.882;8.666;2023-05-22T00:19:13;99626.00;;;18.92;62.42
12963;BME280;6546;49.882;8.666;2023-05-22T00:21:40;99626.34;;;18.96;62.41
12963;BME280;6546;49.882;8.666;2023-05-22T00:24:08;99620.63;;;18.99;62.38
12963;BME280;6546;49.882;8.666;2023-05-22T00:26:34;99623.13;;;18.94;62.63
12963;BME280;6546;49.882;8.666;2023-05-22T00:29:01;99617.91;;;19.05;62.46
12963;BME280;6546;49.882;8.666;2023-05-22T00:31:30;99606.50;;;19.00;62.39
12963;BME280;6546;49.882;8.666;2023-05-22T00:33:58;99610.13;;;18.99;62.51
12963;BME280;6546;49.882;8.666;2023-05-22T00:36:25;99604.88;;;18.99;62.94
12963;BME280;6546;49.882;8.666;2023-05-22T00:38:51;99610.69;;;19.01;62.65
12963;BME280;6546;49.882;8.666;2023-05-22T00:41:18;99609.13;;;19.00;62.87
12963;BME280;6546;49.882;8.666;2023-05-22T00:43:45;99608.06;;;19.01;62.86
12963;BME280;6546;49.882;8.666;2023-05-22T00:46:12;99609.91;;;18.88;63.19
12963;BME280;6546;49.882;8.666;2023-05-22T00:48:39;99607.84;;;18.91;63.68
12963;BME280;6546;49.882;8.666;2023-05-22T00:51:07;99603.28;;;18.86;63.70
12963;BME280;6546;49.882;8.666;2023-05-22T00:53:34;99607.50;;;18.75;64.31
12963;BME280;6546;49.882;8.666;2023-05-22T00:56:01;99599.97;;;18.67;64.24
12963;BME280;6546;49.882;8.666;2023-05-22T00:58:28;99598.31;;;18.55;64.69
12963;BME280;6546;49.882;8.666;2023-05-22T01:00:55;99603.13;;;18.58;65.25
12963;BME280;6546;49.882;8.666;2023-05-22T01:03:22;99602.44;;;18.51;65.38
12963;BME280;6546;49.882;8.666;2023-05-22T01:05:51;99595.38;;;18.51;65.51
12963;BME280;6546;49.882;8.666;2023-05-22T01:08:19;99596.00;;;18.47;65.75
12963;BME280;6546;49.882;8.666;2023-05-22T01:10:47;99591.66;;;18.41;65.60
12963;BME280;6546;49.882;8.666;2023-05-22T01:13:22;99600.53;;;18.40;65.84
12963;BME280;6546;49.882;8.666;2023-05-22T01:15:58;99593.78;;;18.32;66.00
12963;BME280;6546;49.882;8.666;2023-05-22T01:18:30;99589.59;;;18.31;65.92
12963;BME280;6546;49.882;8.666;2023-05-22T01:21:03;99595.84;;;18.30;66.29
12963;BME280;6546;49.882;8.666;2023-05-22T01:23:59;99595.28;;;18.28;66.31
12963;BME280;6546;49.882;8.666;2023-05-22T01:26:53;99601.88;;;18.30;66.28
12963;BME280;6546;49.882;8.666;2023-05-22T01:29:37;99598.91;;;18.27;66.56
12963;BME280;6546;49.882;8.666;2023-05-22T01:32:09;99598.19;;;18.20;66.65
12963;BME280;6546;49.882;8.666;2023-05-22T01:34:39;99599.66;;;18.16;66.84
12963;BME280;6546;49.882;8.666;2023-05-22T01:37:08;99602.59;;;18.08;67.17
12963;BME280;6546;49.882;8.666;2023-05-22T01:39:36;99599.97;;;18.08;66.85
12963;BME280;6546;49.882;8.666;2023-05-22T01:42:03;99607.03;;;18.07;67.23
12963;BME280;6546;49.882;8.666;2023-05-22T01:44:30;99606.22;;;18.07;67.39
12963;BME280;6546;49.882;8.666;2023-05-22T01:46:57;99604.28;;;18.02;67.73
12963;BME280;6546;49.882;8.666;2023-05-22T01:49:31;99595.03;;;18.00;67.92
12963;BME280;6546;49.882;8.666;2023-05-22T01:52:04;99605.75;;;17.98;67.71
12963;BME280;6546;49.882;8.666;2023-05-22T01:54:37;99601.75;;;17.96;67.44
12963;BME280;6546;49.882;8.666;2023-05-22T01:57:09;99604.38;;;17.96;67.70
12963;BME280;6546;49.882;8.666;2023-05-22T01:59:43;99604.00;;;17.92;67.67
12963;BME280;6546;49.882;8.666;2023-05-22T02:02:14;99604.22;;;17.91;68.00
12963;BME280;6546;49.882;8.666;2023-05-22T02:04:45;99612.53;;;17.88;68.29
12963;BME280;6546;49.882;8.666;2023-05-22T02:07:15;99606.47;;;17.87;68.01
12963;BME280;6546;49.882;8.666;2023-05-22T02:09:45;99616.19;;;17.87;67.97
12963;BME280;6546;49.882;8.666;2023-05-22T02:12:13;99614.13;;;17.89;67.99
12963;BME280;6546;49.882;8.666;2023-05-22T02:14:41;99616.38;;;17.85;68.60
12963;BME280;6546;49.882;8.666;2023-05-22T02:17:08;99612.97;;;17.84;67.98
12963;BME280;6546;49.882;8.666;2023-05-22T02:19:34;99613.56;;;17.87;68.04
12963;BME280;6546;49.882;8.666;2023-05-22T02:22:02;99613.84;;;17.78;68.25
12963;BME280;6546;49.882;8.666;2023-05-22T02:24:30;99619.09;;;17.78;68.20
12963;BME280;6546;49.882;8.666;2023-05-22T02:26:57;99606.22;;;17.77;68.23
12963;BME280;6546;49.882;8.666;2023-05-22T02:29:23;99605.41;;;17.76;68.21
12963;BME280;6546;49.882;8.666;2023-05-22T02:31:52;99600.63;;;17.73;68.22
12963;BME280;6546;49.882;8.666;2023-05-22T02:34:19;99607.50;;;17.68;68.62
12963;BME280;6546;49.882;8.666;2023-05-22T02:36:45;99606.72;;;17.67;68.37
12963;BME280;6546;49.882;8.666;2023-05-22T02:39:13;99608.31;;;17.68;68.48
12963;BME280;6546;49.882;8.666;2023-05-22T02:41:40;99605.56;;;17.63;68.64
12963;BME280;6546;49.882;8.666;2023-05-22T02:44:06;99596.38;;;17.54;68.90
12963;BME280;6546;49.882;8.666;2023-05-22T02:46:33;99612.25;;;17.59;68.73
12963;BME280;6546;49.882;8.666;2023-05-22T02:48:59;99602.78;;;17.58;68.63
12963;BME280;6546;49.882;8.666;2023-05-22T02:51:26;99609.63;;;17.59;68.65
12963;BME280;6546;49.882;8.666;2023-05-22T02:53:52;99603.84;;;17.57;68.60
12963;BME280;6546;49.882;8.666;2023-05-22T02:56:20;99601.22;;;17.57;68.97
12963;BME280;6546;49.882;8.666;2023-05-22T02:58:48;99610.47;;;17.53;68.69
12963;BME280;6546;49.882;8.666;2023-05-22T03:01:14;99604.41;;;17.59;68.46
12963;BME280;6546;49.882;8.666;2023-05-22T03:03:41;99601.97;;;17.58;68.11
12963;BME280;6546;49.882;8.666;2023-05-22T03:06:07;99604.88;;;17.50;68.55
12963;BME280;6546;49.882;8.666;2023-05-22T03:08:35;99601.47;;;17.49;68.79
12963;BME280;6546;49.882;8.666;2023-05-22T03:11:05;99603.22;;;17.55;68.04
12963;BME280;6546;49.882;8.666;2023-05-22T03:13:33;99608.88;;;17.52;67.97
12963;BME280;6546;49.882;8.666;2023-05-22T03:16:00;99605.25;;;17.53;67.75
12963;BME280;6546;49.882;8.666;2023-05-22T03:18:26;99604.88;;;17.50;67.67
12963;BME280;6546;49.882;8.666;2023-05-22T03:20:53;99601.25;;;17.51;67.35
12963;BME280;6546;49.882;8.666;2023-05-22T03:23:20;99612.88;;;17.55;67.48
12963;BME280;6546;49.882;8.666;2023-05-22T03:25:46;99610.88;;;17.57;67.10
12963;BME280;6546;49.882;8.666;2023-05-22T03:28:13;99604.41;;;17.59;67.45
12963;BME280;6546;49.882;8.666;2023-05-22T03:30:41;99606.31;;;17.70;66.85
12963;BME280;6546;49.882;8.666;2023-05-22T03:33:08;99608.63;;;17.60;66.72
12963;BME280;6546;49.882;8.666;2023-05-22T03:35:35;99613.75;;;17.49;67.30
12963;BME280;6546;49.882;8.666;2023-05-22T03:38:02;99616.06;;;17.39;67.56
12963;BME280;6546;49.882;8.666;2023-05-22T03:40:28;99615.19;;;17.26;68.17
12963;BME280;6546;49.882;8.666;2023-05-22T03:42:55;99611.97;;;17.24;68.43
12963;BME280;6546;49.882;8.666;2023-05-22T03:45:21;99600.69;;;17.06;68.58
12963;BME280;6546;49.882;8.666;2023-05-22T03:47:49;99612.47;;;17.15;68.48
12963;BME280;6546;49.882;8.666;2023-05-22T03:50:16;99618.16;;;17.12;68.61
12963;BME280;6546;49.882;8.666;2023-05-22T03:52:43;99606.31;;;17.03;69.14
12963;BME280;6546;49.882;8.666;2023-05-22T03:55:09;99609.97;;;17.02;69.35
12963;BME280;6546;49.882;8.666;2023-05-22T03:57:36;99606.47;;;16.90;69.55
12963;BME280;6546;49.882;8.666;2023-05-22T04:00:03;99606.66;;;16.88;69.59
12963;BME280;6546;49.882;8.666;2023-05-22T04:02:34;99611.84;;;16.95;69.83
12963;BME280;6546;49.882;8.666;2023-05-22T04:05:05;99617.50;;;16.92;69.57
12963;BME280;6546;49.882;8.666;2023-05-22T04:07:32;99613.47;;;16.96;69.48
12963;BME280;6546;49.882;8.666;2023-05-22T04:09:58;99619.84;;;17.00;69.67
12963;BME280;6546;49.882;8.666;2023-05-22T04:12:25;99619.00;;;17.06;69.23
12963;BME280;6546;49.882;8.666;2023-05-22T04:14:51;99618.56;;;17.09;69.19
12963;BME280;6546;49.882;8.666;2023-05-22T04:17:18;99617.09;;;17.13;68.96
12963;BME280;6546;49.882;8.666;2023-05-22T04:19:45;99622.09;;;17.21;68.94
12963;BME280;6546;49.882;8.666;2023-05-22T04:22:13;99618.03;;;17.25;68.71
12963;BME280;6546;49.882;8.666;2023-05-22T04:24:40;99618.47;;;17.22;68.53
12963;BME280;6546;49.882;8.666;2023-05-22T04:27:06;99626.66;;;17.25;68.52
12963;BME280;6546;49.882;8.666;2023-05-22T04:29:34;99636.28;;;17.31;68.54
12963;BME280;6546;49.882;8.666;2023-05-22T04:32:01;99636.84;;;17.33;68.63
12963;BME280;6546;49.882;8.666;2023-05-22T04:34:28;99644.63;;;17.40;68.66
12963;BME280;6546;49.882;8.666;2023-05-22T04:36:54;99637.16;;;17.44;68.45
12963;BME280;6546;49.882;8.666;2023-05-22T04:39:23;99650.19;;;17.50;68.59
12963;BME280;6546;49.882;8.666;2023-05-22T04:41:50;99651.34;;;17.54;68.32
12963;BME280;6546;49.882;8.666;2023-05-22T04:44:16;99650.34;;;17.55;68.65
12963;BME280;6546;49.882;8.666;2023-05-22T04:46:47;99656.75;;;17.59;68.57
12963;BME280;6546;49.882;8.666;2023-05-22T04:49:13;99660.91;;;17.67;68.84
12963;BME280;6546;49.882;8.666;2023-05-22T04:51:40;99651.09;;;17.80;68.49
12963;BME280;6546;49.882;8.666;2023-05-22T04:54:06;99664.63;;;17.96;67.49
12963;BME280;6546;49.882;8.666;2023-05-22T04:56:34;99659.16;;;17.97;67.54
12963;BME280;6546;49.882;8.666;2023-05-22T04:59:01;99657.50;;;18.03;67.33
12963;BME280;6546;49.882;8.666;2023-05-22T05:01:28;99666.22;;;18.15;67.54
12963;BME280;6546;49.882;8.666;2023-05-22T05:03:55;99663.41;;;18.28;66.95
12963;BME280;6546;49.882;8.666;2023-05-22T05:06:21;99654.94;;;18.44;66.74
12963;BME280;6546;49.882;8.666;2023-05-22T05:08:48;99665.84;;;18.59;66.74
12963;BME280;6546;49.882;8.666;2023-05-22T05:11:17;99666.66;;;18.71;65.57
12963;BME280;6546;49.882;8.666;2023-05-22T05:13:45;99661.88;;;18.68;64.78
12963;BME280;6546;49.882;8.666;2023-05-22T05:16:11;99671.19;;;18.64;65.29
12963;BME280;6546;49.882;8.666;2023-05-22T05:18:38;99672.34;;;18.68;64.46
12963;BME280;6546;49.882;8.666;2023-05-22T05:21:04;99672.34;;;18.68;64.36
12963;BME280;6546;49.882;8.666;2023-05-22T05:23:31;99667.66;;;18.59;64.34
12963;BME280;6546;49.882;8.666;2023-05-22T05:25:57;99665.28;;;18.57;64.81
12963;BME280;6546;49.882;8.666;2023-05-22T05:28:24;99671.63;;;18.61;64.30
12963;BME280;6546;49.882;8.666;2023-05-22T05:30:52;99669.16;;;18.66;64.02
12963;BME280;6546;49.882;8.666;2023-05-22T05:33:18;99669.97;;;18.67;63.69
12963;BME280;6546;49.882;8.666;2023-05-22T05:35:45;99674.06;;;18.74;63.78
12963;BME280;6546;49.882;8.666;2023-05-22T05:38:16;99662.34;;;18.77;62.85
12963;BME280;6546;49.882;8.666;2023-05-22T05:40:43;99663.47;;;18.81;63.17
12963;BME280;6546;49.882;8.666;2023-05-22T05:43:09;99671.16;;;18.94;62.70
12963;BME280;6546;49.882;8.666;2023-05-22T05:45:38;99671.84;;;19.01;62.47
12963;BME280;6546;49.882;8.666;2023-05-22T05:48:06;99677.09;;;19.13;63.14
12963;BME280;6546;49.882;8.666;2023-05-22T05:50:32;99677.34;;;19.23;62.34
12963;BME280;6546;49.882;8.666;2023-05-22T05:52:59;99676.44;;;19.29;61.88
12963;BME280;6546;49.882;8.666;2023-05-22T05:55:26;99672.22;;;19.39;62.01
12963;BME280;6546;49.882;8.666;2023-05-22T05:57:53;99676.38;;;19.47;61.47
12963;BME280;6546;49.882;8.666;2023-05-22T06:00:20;99674.31;;;19.61;61.56
12963;BME280;6546;49.882;8.666;2023-05-22T06:02:47;99670.03;;;19.83;60.59
12963;BME280;6546;49.882;8.666;2023-05-22T06:05:15;99680.03;;;20.49;58.54
12963;BME280;6546;49.882;8.666;2023-05-22T06:07:43;99674.81;;;21.49;55.61
12963;BME280;6546;49.882;8.666;2023-05-22T06:10:11;99677.06;;;22.44;52.44
12963;BME280;6546;49.882;8.666;2023-05-22T06:12:37;99687.53;;;23.61;49.09
12963;BME280;6546;49.882;8.666;2023-05-22T06:15:05;99683.94;;;24.70;45.69
12963;BME280;6546;49.882;8.666;2023-05-22T06:17:32;99688.69;;;25.64;43.77
12963;BME280;6546;49.882;8.666;2023-05-22T06:19:59;99689.56;;;26.62;40.67
12963;BME280;6546;49.882;8.666;2023-05-22T06:22:28;99686.84;;;27.35;39.39
12963;BME280;6546;49.882;8.666;2023-05-22T06:24:54;99694.72;;;27.97;37.38
12963;BME280;6546;49.882;8.666;2023-05-22T06:27:21;99699.78;;;28.17;37.36
12963;BME280;6546;49.882;8.666;2023-05-22T06:29:48;99701.25;;;28.05;37.05
12963;BME280;6546;49.882;8.666;2023-05-22T06:32:15;99694.63;;;28.07;37.07
12963;BME280;6546;49.882;8.666;2023-05-22T06:34:43;99693.94;;;27.49;37.69
12963;BME280;6546;49.882;8.666;2023-05-22T06:37:10;99689.28;;;27.60;37.40
12963;BME280;6546;49.882;8.666;2023-05-22T06:39:38;99692.31;;;27.96;36.82
12963;BME280;6546;49.882;8.666;2023-05-22T06:42:05;99684.09;;;28.35;36.19
12963;BME280;6546;49.882;8.666;2023-05-22T06:44:32;99687.56;;;28.91;35.37
12963;BME280;6546;49.882;8.666;2023-05-22T06:46:58;99677.78;;;29.33;34.64
12963;BME280;6546;49.882;8.666;2023-05-22T06:49:25;99678.97;;;29.54;33.47
12963;BME280;6546;49.882;8.666;2023-05-22T06:51:52;99682.94;;;29.70;33.35
12963;BME280;6546;49.882;8.666;2023-05-22T06:54:18;99680.56;;;29.82;33.09
12963;BME280;6546;49.882;8.666;2023-05-22T06:56:46;99676.81;;;29.42;33.41
12963;BME280;6546;49.882;8.666;2023-05-22T06:59:14;99685.69;;;29.38;34.87
12963;BME280;6546;49.882;8.666;2023-05-22T07:01:41;99684.84;;;29.24;33.27
12963;BME280;6546;49.882;8.666;2023-05-22T07:04:08;99695.81;;;28.90;33.66
12963;BME280;6546;49.882;8.666;2023-05-22T07:06:36;99682.59;;;28.85;34.52
12963;BME280;6546;49.882;8.666;2023-05-22T07:09:06;99697.34;;;28.58;34.67
12963;BME280;6546;49.882;8.666;2023-05-22T07:11:33;99697.06;;;28.60;36.45
12963;BME280;6546;49.882;8.666;2023-05-22T07:14:01;99697.34;;;28.58;37.00
12963;BME280;6546;49.882;8.666;2023-05-22T07:16:29;99696.66;;;28.53;35.37
12963;BME280;6546;49.882;8.666;2023-05-22T07:18:57;99701.97;;;28.53;35.92
12963;BME280;6546;49.882;8.666;2023-05-22T07:21:23;99691.09;;;28.31;36.66
12963;BME280;6546;49.882;8.666;2023-05-22T07:23:50;99700.34;;;27.72;37.34
12963;BME280;6546;49.882;8.666;2023-05-22T07:26:17;99698.28;;;27.35;38.14
12963;BME280;6546;49.882;8.666;2023-05-22T07:28:43;99701.09;;;26.91;39.44
12963;BME280;6546;49.882;8.666;2023-05-22T07:31:12;99695.53;;;26.83;40.84
12963;BME280;6546;49.882;8.666;2023-05-22T07:33:38;99698.06;;;26.64;41.50
12963;BME280;6546;49.882;8.666;2023-05-22T07:36:05;99697.06;;;26.55;41.32
12963;BME280;6546;49.882;8.666;2023-05-22T07:38:32;99705.50;;;26.62;41.72
12963;BME280;6546;49.882;8.666;2023-05-22T07:40:58;99699.72;;;26.55;41.54
12963;BME280;6546;49.882;8.666;2023-05-22T07:43:27;99712.25;;;26.49;41.72
12963;BME280;6546;49.882;8.666;2023-05-22T07:45:53;99714.69;;;26.36;42.13
12963;BME280;6546;49.882;8.666;2023-05-22T07:48:21;99713.19;;;26.04;42.11
12963;BME280;6546;49.882;8.666;2023-05-22T07:50:48;99708.47;;;25.96;43.10
12963;BME280;6546;49.882;8.666;2023-05-22T07:53:14;99706.03;;;26.05;43.56
12963;BME280;6546;49.882;8.666;2023-05-22T07:55:41;99704.44;;;26.09;43.90
12963;BME280;6546;49.882;8.666;2023-05-22T07:58:08;99709.50;;;26.10;44.39
12963;BME280;6546;49.882;8.666;2023-05-22T08:00:35;99708.44;;;26.17;43.78
12963;BME280;6546;49.882;8.666;2023-05-22T08:03:01;99711.88;;;26.17;43.99
12963;BME280;6546;49.882;8.666;2023-05-22T08:05:29;99711.03;;;26.22;44.46
12963;BME280;6546;49.882;8.666;2023-05-22T08:07:56;99711.56;;;26.24;43.89
12963;BME280;6546;49.882;8.666;2023-05-22T08:10:22;99706.78;;;26.26;44.64
12963;BME280;6546;49.882;8.666;2023-05-22T08:12:49;99709.44;;;26.16;45.03
12963;BME280;6546;49.882;8.666;2023-05-22T08:15:15;99707.84;;;26.25;44.87
12963;BME280;6546;49.882;8.666;2023-05-22T08:17:42;99709.69;;;26.29;44.05
12963;BME280;6546;49.882;8.666;2023-05-22T08:20:09;99710.69;;;26.38;44.78
12963;BME280;6546;49.882;8.666;2023-05-22T08:22:37;99705.63;;;26.42;42.84
12963;BME280;6546;49.882;8.666;2023-05-22T08:25:04;99702.22;;;26.36;41.95
12963;BME280;6546;49.882;8.666;2023-05-22T08:27:31;99704.63;;;26.28;42.12
12963;BME280;6546;49.882;8.666;2023-05-22T08:29:58;99697.69;;;26.37;42.70
12963;BME280;6546;49.882;8.666;2023-05-22T08:32:25;99700.81;;;26.44;42.92
12963;BME280;6546;49.882;8.666;2023-05-22T08:34:51;99710.63;;;26.48;42.00
12963;BME280;6546;49.882;8.666;2023-05-22T08:37:18;99708.78;;;26.49;43.02
12963;BME280;6546;49.882;8.666;2023-05-22T08:39:46;99709.28;;;26.51;42.01
12963;BME280;6546;49.882;8.666;2023-05-22T08:42:13;99711.13;;;26.55;42.24
12963;BME280;6546;49.882;8.666;2023-05-22T08:44:39;99700.50;;;26.55;41.47
12963;BME280;6546;49.882;8.666;2023-05-22T08:47:07;99702.31;;;26.65;41.62
12963;BME280;6546;49.882;8.666;2023-05-22T08:49:36;99704.34;;;26.73;41.94
12963;BME280;6546;49.882;8.666;2023-05-22T08:52:08;99684.81;;;26.59;42.27
12963;BME280;6546;49.882;8.666;2023-05-22T08:54:39;99693.25;;;26.66;41.44
12963;BME280;6546;49.882;8.666;2023-05-22T08:57:08;99691.13;;;26.68;39.84
12963;BME280;6546;49.882;8.666;2023-05-22T08:59:36;99684.22;;;26.67;40.68
12963;BME280;6546;49.882;8.666;2023-05-22T09:02:04;99688.19;;;26.70;41.50
12963;BME280;6546;49.882;8.666;2023-05-22T09:04:31;99690.22;;;26.83;41.14
12963;BME280;6546;49.882;8.666;2023-05-22T09:06:58;99687.25;;;26.94;40.21
12963;BME280;6546;49.882;8.666;2023-05-22T09:09:30;99694.91;;;26.96;39.59
12963;BME280;6546;49.882;8.666;2023-05-22T09:11:58;99682.38;;;27.01;40.27
12963;BME280;6546;49.882;8.666;2023-05-22T09:14:26;99690.03;;;27.08;40.60
12963;BME280;6546;49.882;8.666;2023-05-22T09:16:53;99683.88;;;27.12;41.33
12963;BME280;6546;49.882;8.666;2023-05-22T09:19:20;99680.19;;;27.08;39.93
12963;BME280;6546;49.882;8.666;2023-05-22T09:21:47;99691.03;;;27.17;40.47
12963;BME280;6546;49.882;8.666;2023-05-22T09:24:13;99684.91;;;27.17;39.60
12963;BME280;6546;49.882;8.666;2023-05-22T09:26:40;99685.91;;;27.21;40.99
12963;BME280;6546;49.882;8.666;2023-05-22T09:29:07;99688.78;;;27.29;41.12
12963;BME280;6546;49.882;8.666;2023-05-22T09:31:39;99683.13;;;27.36;39.51
12963;BME280;6546;49.882;8.666;2023-05-22T09:34:07;99683.69;;;27.33;38.70
12963;BME280;6546;49.882;8.666;2023-05-22T09:36:34;99678.63;;;27.07;38.62
12963;BME280;6546;49.882;8.666;2023-05-22T09:39:03;99677.69;;;26.88;39.12
12963;BME280;6546;49.882;8.666;2023-05-22T09:41:33;99679.34;;;26.84;40.31
12963;BME280;6546;49.882;8.666;2023-05-22T09:44:00;99682.69;;;26.95;40.81
12963;BME280;6546;49.882;8.666;2023-05-22T09:46:27;99672.84;;;27.00;40.21
12963;BME280;6546;49.882;8.666;2023-05-22T09:48:55;99675.56;;;27.19;40.68
12963;BME280;6546;49.882;8.666;2023-05-22T09:51:21;99683.47;;;27.29;39.67
12963;BME280;6546;49.882;8.666;2023-05-22T09:53:49;99685.06;;;27.30;40.29
12963;BME280;6546;49.882;8.666;2023-05-22T09:56:17;99674.31;;;27.11;39.85
12963;BME280;6546;49.882;8.666;2023-05-22T09:58:48;99677.81;;;27.07;39.93
12963;BME280;6546;49.882;8.666;2023-05-22T10:01:17;99669.88;;;27.02;40.76
12963;BME280;6546;49.882;8.666;2023-05-22T10:03:46;99674.84;;;27.13;40.11
12963;BME280;6546;49.882;8.666;2023-05-22T10:06:16;99678.13;;;27.29;41.67
12963;BME280;6546;49.882;8.666;2023-05-22T10:08:48;99679.88;;;27.44;39.87
12963;BME280;6546;49.882;8.666;2023-05-22T10:11:16;99684.28;;;27.53;40.18
12963;BME280;6546;49.882;8.666;2023-05-22T10:13:43;99688.81;;;27.53;40.12
12963;BME280;6546;49.882;8.666;2023-05-22T10:16:12;99681.72;;;27.43;40.78
12963;BME280;6546;49.882;8.666;2023-05-22T10:18:42;99683.56;;;27.48;40.83
12963;BME280;6546;49.882;8.666;2023-05-22T10:21:10;99683.50;;;27.53;39.93
12963;BME280;6546;49.882;8.666;2023-05-22T10:23:40;99677.75;;;27.46;39.18
12963;BME280;6546;49.882;8.666;2023-05-22T10:26:07;99668.75;;;27.37;41.10
12963;BME280;6546;49.882;8.666;2023-05-22T10:28:39;99680.28;;;27.27;40.54
12963;BME280;6546;49.882;8.666;2023-05-22T10:31:13;99671.19;;;27.04;41.24
12963;BME280;6546;49.882;8.666;2023-05-22T10:33:51;99666.00;;;26.89;41.41
12963;BME280;6546;49.882;8.666;2023-05-22T10:36:30;99669.78;;;26.78;41.32
12963;BME280;6546;49.882;8.666;2023-05-22T10:39:11;99663.47;;;26.69;42.06
12963;BME280;6546;49.882;8.666;2023-05-22T10:41:41;99665.53;;;26.77;43.17
12963;BME280;6546;49.882;8.666;2023-05-22T10:44:08;99657.03;;;26.80;41.44
12963;BME280;6546;49.882;8.666;2023-05-22T10:46:35;99653.28;;;26.86;41.68
12963;BME280;6546;49.882;8.666;2023-05-22T10:49:01;99658.75;;;27.00;41.15
12963;BME280;6546;49.882;8.666;2023-05-22T10:51:28;99643.53;;;27.05;40.86
12963;BME280;6546;49.882;8.666;2023-05-22T10:53:57;99653.97;;;27.26;40.63
12963;BME280;6546;49.882;8.666;2023-05-22T10:56:31;99654.44;;;27.33;41.44
12963;BME280;6546;49.882;8.666;2023-05-22T10:58:59;99656.97;;;27.48;39.65
12963;BME280;6546;49.882;8.666;2023-05-22T11:01:29;99646.31;;;27.48;39.02
12963;BME280;6546;49.882;8.666;2023-05-22T11:04:00;99652.66;;;27.52;38.31
12963;BME280;6546;49.882;8.666;2023-05-22T11:06:35;99655.59;;;27.22;38.38
12963;BME280;6546;49.882;8.666;2023-05-22T11:09:19;99651.75;;;27.09;38.85
12963;BME280;6546;49.882;8.666;2023-05-22T11:12:14;99647.41;;;26.89;39.03
12963;BME280;6546;49.882;8.666;2023-05-22T11:14:41;99642.38;;;27.17;39.66
12963;BME280;6546;49.882;8.666;2023-05-22T11:17:11;99646.94;;;27.40;40.15
12963;BME280;6546;49.882;8.666;2023-05-22T11:19:39;99635.13;;;27.51;40.54
12963;BME280;6546;49.882;8.666;2023-05-22T11:22:06;99640.06;;;27.62;39.64
12963;BME280;6546;49.882;8.666;2023-05-22T11:24:33;99635.72;;;27.67;40.32
12963;BME280;6546;49.882;8.666;2023-05-22T11:27:32;99634.88;;;27.71;39.02
12963;BME280;6546;49.882;8.666;2023-05-22T11:30:24;99631.66;;;27.74;39.39
12963;BME280;6546;49.882;8.666;2023-05-22T11:32:53;99634.53;;;27.78;39.40
12963;BME280;6546;49.882;8.666;2023-05-22T11:35:20;99626.78;;;27.81;39.58
12963;BME280;6546;49.882;8.666;2023-05-22T11:37:50;99626.59;;;27.73;38.03
12963;BME280;6546;49.882;8.666;2023-05-22T11:40:18;99635.16;;;27.70;38.11
12963;BME280;6546;49.882;8.666;2023-05-22T11:42:47;99624.94;;;27.58;36.78
12963;BME280;6546;49.882;8.666;2023-05-22T11:45:14;99621.78;;;27.27;38.35
12963;BME280;6546;49.882;8.666;2023-05-22T11:47:42;99617.81;;;27.25;39.61
12963;BME280;6546;49.882;8.666;2023-05-22T11:50:10;99614.31;;;27.29;39.24
12963;BME280;6546;49.882;8.666;2023-05-22T11:52:38;99609.25;;;27.33;37.96
12963;BME280;6546;49.882;8.666;2023-05-22T11:55:06;99606.63;;;27.28;37.89
12963;BME280;6546;49.882;8.666;2023-05-22T11:57:33;99614.00;;;27.36;38.44
12963;BME280;6546;49.882;8.666;2023-05-22T12:00:04;99606.50;;;27.38;38.06
12963;BME280;6546;49.882;8.666;2023-05-22T12:02:32;99596.88;;;27.18;38.01
12963;BME280;6546;49.882;8.666;2023-05-22T12:04:59;99596.41;;;27.11;37.84
12963;BME280;6546;49.882;8.666;2023-05-22T12:07:26;99600.31;;;26.95;38.51
12963;BME280;6546;49.882;8.666;2023-05-22T12:09:55;99586.84;;;26.86;38.78
12963;BME280;6546;49.882;8.666;2023-05-22T12:12:21;99588.84;;;26.99;38.76
12963;BME280;6546;49.882;8.666;2023-05-22T12:14:48;99593.59;;;27.02;38.50
12963;BME280;6546;49.882;8.666;2023-05-22T12:17:16;99585.03;;;27.10;38.51
12963;BME280;6546;49.882;8.666;2023-05-22T12:19:44;99584.84;;;27.26;38.65
12963;BME280;6546;49.882;8.666;2023-05-22T12:22:11;99585.75;;;27.40;40.02
12963;BME280;6546;49.882;8.666;2023-05-22T12:24:39;99584.06;;;27.49;39.23
12963;BME280;6546;49.882;8.666;2023-05-22T12:27:07;99581.66;;;27.52;38.20
12963;BME280;6546;49.882;8.666;2023-05-22T12:29:34;99577.38;;;27.51;38.04
12963;BME280;6546;49.882;8.666;2023-05-22T12:32:01;99578.88;;;27.34;37.62
12963;BME280;6546;49.882;8.666;2023-05-22T12:34:33;99571.66;;;27.16;38.29
12963;BME280;6546;49.882;8.666;2023-05-22T12:37:01;99561.53;;;27.18;39.06
12963;BME280;6546;49.882;8.666;2023-05-22T12:39:27;99565.75;;;27.24;40.25
12963;BME280;6546;49.882;8.666;2023-05-22T12:41:54;99561.38;;;27.33;39.63
12963;BME280;6546;49.882;8.666;2023-05-22T12:44:22;99566.03;;;27.41;39.63
12963;BME280;6546;49.882;8.666;2023-05-22T12:46:48;99564.97;;;27.42;38.90
12963;BME280;6546;49.882;8.666;2023-05-22T12:49:15;99562.84;;;27.44;39.45
12963;BME280;6546;49.882;8.666;2023-05-22T12:51:44;99560.72;;;27.46;40.06
12963;BME280;6546;49.882;8.666;2023-05-22T12:54:11;99565.72;;;27.47;38.64
12963;BME280;6546;49.882;8.666;2023-05-22T12:56:39;99560.19;;;27.44;37.55
12963;BME280;6546;49.882;8.666;2023-05-22T12:59:06;99561.31;;;27.38;38.82
12963;BME280;6546;49.882;8.666;2023-05-22T13:01:36;99567.69;;;27.37;39.86
12963;BME280;6546;49.882;8.666;2023-05-22T13:04:03;99562.09;;;27.38;39.10
12963;BME280;6546;49.882;8.666;2023-05-22T13:06:29;99569.50;;;27.41;39.05
12963;BME280;6546;49.882;8.666;2023-05-22T13:08:57;99558.59;;;27.43;38.65
12963;BME280;6546;49.882;8.666;2023-05-22T13:11:24;99561.81;;;27.40;38.28
12963;BME280;6546;49.882;8.666;2023-05-22T13:13:51;99570.97;;;27.29;38.14
12963;BME280;6546;49.882;8.666;2023-05-22T13:16:17;99566.28;;;27.21;38.83